Terminal Aerodrome Forecast
Issued by NWS Denver/Boulder, CO

Home | Current Version | Previous Version | Text Only | Print | Product List | Glossary On
Versions: 1 2 3 4 5 6 7 8 9 10 11 12 13 14 15 16 17 18 19 20 21 22 23 24 25 26 27 28 29 30 31 32 33 34 35 36 37 38 39 40 41
000
FTUS45 KBOU 240726 AAA
TAFDEN
TAF AMD
KDEN 240726Z 2407/2512 01007KT P6SM SCT022 BKN035 OVC050
      TEMPO 2412/2416 BKN022
     FM242100 06008KT P6SM SCT025 BKN060
     FM250200 13008KT P6SM SCT025 BKN060
     FM250600 20009KT P6SM FEW070=

USA.gov is the U.S. government's official web portal to all federal, state and local government web resources and services.